sensor_id;sensor_type;location;lat;lon;timestamp;pressure;altitude;pressure_sealevel;temperature;humidity
10135;BME280;5107;48.850;8.924;2022-09-02T00:01:21;96924.03;;;15.16;73.03
10135;BME280;5107;48.850;8.924;2022-09-02T00:03:49;96912.22;;;15.19;74.94
10135;BME280;5107;48.850;8.924;2022-09-02T00:06:17;96902.94;;;15.30;76.02
10135;BME280;5107;48.850;8.924;2022-09-02T00:08:45;96907.78;;;15.26;73.23
10135;BME280;5107;48.850;8.924;2022-09-02T00:11:17;96906.97;;;15.26;73.51
10135;BME280;5107;48.850;8.924;2022-09-02T00:13:45;96900.69;;;15.33;74.21
10135;BME280;5107;48.850;8.924;2022-09-02T00:16:13;96900.09;;;15.31;72.49
10135;BME280;5107;48.850;8.924;2022-09-02T00:18:40;96897.81;;;15.28;71.85
10135;BME280;5107;48.850;8.924;2022-09-02T00:21:08;96894.78;;;15.31;72.22
10135;BME280;5107;48.850;8.924;2022-09-02T00:23:37;96896.00;;;15.29;72.97
10135;BME280;5107;48.850;8.924;2022-09-02T00:26:04;96901.94;;;15.31;72.26
10135;BME280;5107;48.850;8.924;2022-09-02T00:28:33;96895.66;;;15.38;73.14
10135;BME280;5107;48.850;8.924;2022-09-02T00:31:01;96896.50;;;15.45;72.51
10135;BME280;5107;48.850;8.924;2022-09-02T00:33:28;96893.88;;;15.52;72.38
10135;BME280;5107;48.850;8.924;2022-09-02T00:35:58;96895.34;;;15.54;72.66
10135;BME280;5107;48.850;8.924;2022-09-02T00:38:26;96891.28;;;15.59;72.54
10135;BME280;5107;48.850;8.924;2022-09-02T00:40:53;96894.56;;;15.61;72.84
10135;BME280;5107;48.850;8.924;2022-09-02T00:43:38;96890.47;;;15.58;72.58
10135;BME280;5107;48.850;8.924;2022-09-02T00:46:08;96881.81;;;15.49;72.80
10135;BME280;5107;48.850;8.924;2022-09-02T00:48:39;96884.25;;;15.44;72.37
10135;BME280;5107;48.850;8.924;2022-09-02T00:51:08;96887.06;;;15.36;73.24
10135;BME280;5107;48.850;8.924;2022-09-02T00:53:38;96883.97;;;15.33;73.84
10135;BME280;5107;48.850;8.924;2022-09-02T00:56:12;96884.97;;;15.32;72.83
10135;BME280;5107;48.850;8.924;2022-09-02T00:58:41;96889.53;;;15.38;73.94
10135;BME280;5107;48.850;8.924;2022-09-02T01:01:10;96888.91;;;15.42;73.68
10135;BME280;5107;48.850;8.924;2022-09-02T01:03:38;96886.28;;;15.49;72.99
10135;BME280;5107;48.850;8.924;2022-09-02T01:06:06;96887.22;;;15.56;72.54
10135;BME280;5107;48.850;8.924;2022-09-02T01:08:35;96889.63;;;15.57;72.25
10135;BME280;5107;48.850;8.924;2022-09-02T01:11:04;96889.16;;;15.47;71.26
10135;BME280;5107;48.850;8.924;2022-09-02T01:13:37;96887.69;;;15.38;73.21
10135;BME280;5107;48.850;8.924;2022-09-02T01:16:13;96885.63;;;15.40;72.95
10135;BME280;5107;48.850;8.924;2022-09-02T01:18:48;96886.91;;;15.44;72.78
10135;BME280;5107;48.850;8.924;2022-09-02T01:21:16;96887.69;;;15.38;72.66
10135;BME280;5107;48.850;8.924;2022-09-02T01:23:45;96886.06;;;15.37;72.78
10135;BME280;5107;48.850;8.924;2022-09-02T01:26:13;96880.34;;;15.40;72.25
10135;BME280;5107;48.850;8.924;2022-09-02T01:28:40;96886.28;;;15.49;72.47
10135;BME280;5107;48.850;8.924;2022-09-02T01:31:08;96889.16;;;15.47;72.81
10135;BME280;5107;48.850;8.924;2022-09-02T01:33:35;96884.25;;;15.44;72.58
10135;BME280;5107;48.850;8.924;2022-09-02T01:36:03;96885.41;;;15.35;71.96
10135;BME280;5107;48.850;8.924;2022-09-02T01:38:31;96879.88;;;15.30;72.36
10135;BME280;5107;48.850;8.924;2022-09-02T01:41:00;96878.41;;;15.21;71.47
10135;BME280;5107;48.850;8.924;2022-09-02T01:43:28;96888.53;;;15.11;70.71
10135;BME280;5107;48.850;8.924;2022-09-02T01:45:57;96881.91;;;15.00;70.91
10135;BME280;5107;48.850;8.924;2022-09-02T01:48:28;96885.91;;;14.90;71.62
10135;BME280;5107;48.850;8.924;2022-09-02T01:51:00;96885.25;;;14.81;71.91
10135;BME280;5107;48.850;8.924;2022-09-02T01:53:29;96876.19;;;14.69;72.06
10135;BME280;5107;48.850;8.924;2022-09-02T01:55:59;96880.06;;;14.73;75.22
10135;BME280;5107;48.850;8.924;2022-09-02T01:58:29;96878.19;;;14.67;73.21
10135;BME280;5107;48.850;8.924;2022-09-02T02:00:56;96870.56;;;14.57;73.33
10135;BME280;5107;48.850;8.924;2022-09-02T02:03:23;96879.53;;;14.56;75.23
10135;BME280;5107;48.850;8.924;2022-09-02T02:05:51;96876.88;;;14.56;75.55
10135;BME280;5107;48.850;8.924;2022-09-02T02:08:19;96880.84;;;14.67;75.89
10135;BME280;5107;48.850;8.924;2022-09-02T02:10:47;96879.00;;;14.67;74.41
10135;BME280;5107;48.850;8.924;2022-09-02T02:13:16;96877.13;;;14.61;74.09
10135;BME280;5107;48.850;8.924;2022-09-02T02:15:44;96883.34;;;14.47;73.80
10135;BME280;5107;48.850;8.924;2022-09-02T02:18:11;96879.34;;;14.58;74.81
10135;BME280;5107;48.850;8.924;2022-09-02T02:20:38;96878.28;;;14.52;71.96
10135;BME280;5107;48.850;8.924;2022-09-02T02:23:06;96874.00;;;14.51;71.55
10135;BME280;5107;48.850;8.924;2022-09-02T02:25:34;96872.34;;;14.50;72.00
10135;BME280;5107;48.850;8.924;2022-09-02T02:28:02;96870.66;;;14.42;71.83
10135;BME280;5107;48.850;8.924;2022-09-02T02:30:31;96876.63;;;14.51;71.62
10135;BME280;5107;48.850;8.924;2022-09-02T02:33:00;96872.47;;;14.42;71.49
10135;BME280;5107;48.850;8.924;2022-09-02T02:35:27;96868.91;;;14.35;71.69
10135;BME280;5107;48.850;8.924;2022-09-02T02:37:54;96869.75;;;14.35;71.92
10135;BME280;5107;48.850;8.924;2022-09-02T02:40:24;96865.22;;;14.29;72.91
10135;BME280;5107;48.850;8.924;2022-09-02T02:42:52;96861.94;;;14.27;72.82
10135;BME280;5107;48.850;8.924;2022-09-02T02:45:23;96858.63;;;14.25;72.52
10135;BME280;5107;48.850;8.924;2022-09-02T02:47:52;96858.59;;;14.19;71.97
10135;BME280;5107;48.850;8.924;2022-09-02T02:50:23;96864.25;;;14.16;72.13
10135;BME280;5107;48.850;8.924;2022-09-02T02:52:51;96867.41;;;14.26;72.82
10135;BME280;5107;48.850;8.924;2022-09-02T02:55:21;96860.22;;;14.20;71.32
10135;BME280;5107;48.850;8.924;2022-09-02T02:57:50;96856.75;;;14.19;71.54
10135;BME280;5107;48.850;8.924;2022-09-02T03:00:22;96859.78;;;14.16;70.95
10135;BME280;5107;48.850;8.924;2022-09-02T03:02:56;96859.16;;;14.14;73.27
10135;BME280;5107;48.850;8.924;2022-09-02T03:05:24;96864.19;;;14.09;71.38
10135;BME280;5107;48.850;8.924;2022-09-02T03:07:51;96855.59;;;14.07;72.10
10135;BME280;5107;48.850;8.924;2022-09-02T03:10:20;96855.19;;;14.03;71.57
10135;BME280;5107;48.850;8.924;2022-09-02T03:12:49;96854.34;;;14.03;71.31
10135;BME280;5107;48.850;8.924;2022-09-02T03:15:20;96855.72;;;13.99;71.57
10135;BME280;5107;48.850;8.924;2022-09-02T03:17:51;96853.91;;;13.99;72.22
10135;BME280;5107;48.850;8.924;2022-09-02T03:20:22;96852.88;;;14.00;71.52
10135;BME280;5107;48.850;8.924;2022-09-02T03:22:55;96852.59;;;14.10;73.62
10135;BME280;5107;48.850;8.924;2022-09-02T03:25:27;96862.09;;;14.26;74.65
10135;BME280;5107;48.850;8.924;2022-09-02T03:27:56;96860.47;;;14.25;72.33
10135;BME280;5107;48.850;8.924;2022-09-02T03:30:29;96862.47;;;14.23;71.42
10135;BME280;5107;48.850;8.924;2022-09-02T03:32:59;96861.22;;;14.19;71.33
10135;BME280;5107;48.850;8.924;2022-09-02T03:35:29;96858.00;;;14.23;72.84
10135;BME280;5107;48.850;8.924;2022-09-02T03:37:58;96856.31;;;14.16;70.72
10135;BME280;5107;48.850;8.924;2022-09-02T03:40:26;96851.41;;;14.13;70.87
10135;BME280;5107;48.850;8.924;2022-09-02T03:42:54;96853.03;;;14.14;72.48
10135;BME280;5107;48.850;8.924;2022-09-02T03:45:22;96850.31;;;14.07;72.42
10135;BME280;5107;48.850;8.924;2022-09-02T03:47:50;96853.72;;;14.01;71.33
10135;BME280;5107;48.850;8.924;2022-09-02T03:50:24;96854.47;;;13.95;72.41
10135;BME280;5107;48.850;8.924;2022-09-02T03:52:54;96853.38;;;13.89;73.47
10135;BME280;5107;48.850;8.924;2022-09-02T03:55:22;96860.19;;;13.98;74.00
10135;BME280;5107;48.850;8.924;2022-09-02T03:57:50;96848.25;;;14.02;74.15
10135;BME280;5107;48.850;8.924;2022-09-02T04:00:21;96856.31;;;14.16;75.35
10135;BME280;5107;48.850;8.924;2022-09-02T04:02:50;96853.81;;;14.29;73.41
10135;BME280;5107;48.850;8.924;2022-09-02T04:05:19;96853.16;;;14.27;72.49
10135;BME280;5107;48.850;8.924;2022-09-02T04:07:48;96860.59;;;14.38;73.60
10135;BME280;5107;48.850;8.924;2022-09-02T04:10:19;96856.59;;;14.42;72.17
10135;BME280;5107;48.850;8.924;2022-09-02T04:12:49;96856.03;;;14.47;72.90
10135;BME280;5107;48.850;8.924;2022-09-02T04:15:17;96857.47;;;14.49;72.04
10135;BME280;5107;48.850;8.924;2022-09-02T04:21:45;96851.28;;;14.21;73.07
10135;BME280;5107;48.850;8.924;2022-09-02T04:24:13;96855.22;;;14.10;73.25
10135;BME280;5107;48.850;8.924;2022-09-02T04:26:46;96852.47;;;13.97;72.41
10135;BME280;5107;48.850;8.924;2022-09-02T04:29:16;96858.41;;;13.84;72.87
10135;BME280;5107;48.850;8.924;2022-09-02T04:31:43;96865.38;;;13.71;74.46
10135;BME280;5107;48.850;8.924;2022-09-02T04:34:11;96853.81;;;13.57;74.93
10135;BME280;5107;48.850;8.924;2022-09-02T04:36:40;96854.81;;;13.56;77.04
10135;BME280;5107;48.850;8.924;2022-09-02T04:39:08;96856.28;;;13.58;75.93
10135;BME280;5107;48.850;8.924;2022-09-02T04:41:36;96856.34;;;13.65;75.99
10135;BME280;5107;48.850;8.924;2022-09-02T04:44:08;96859.28;;;13.70;76.02
10135;BME280;5107;48.850;8.924;2022-09-02T04:46:39;96862.25;;;13.82;74.75
10135;BME280;5107;48.850;8.924;2022-09-02T04:49:11;96856.56;;;13.63;73.85
10135;BME280;5107;48.850;8.924;2022-09-02T04:51:40;96865.69;;;13.32;75.25
10135;BME280;5107;48.850;8.924;2022-09-02T04:54:09;96862.78;;;13.26;74.93
10135;BME280;5107;48.850;8.924;2022-09-02T04:56:40;96855.13;;;13.17;76.18
10135;BME280;5107;48.850;8.924;2022-09-02T04:59:09;96854.81;;;12.97;77.12
10135;BME280;5107;48.850;8.924;2022-09-02T05:01:40;96854.00;;;12.97;77.11
10135;BME280;5107;48.850;8.924;2022-09-02T05:04:13;96855.81;;;12.96;77.62
10135;BME280;5107;48.850;8.924;2022-09-02T05:06:45;96852.56;;;13.23;78.81
10135;BME280;5107;48.850;8.924;2022-09-02T05:09:17;96858.22;;;13.35;76.17
10135;BME280;5107;48.850;8.924;2022-09-02T05:11:50;96857.56;;;13.62;77.66
10135;BME280;5107;48.850;8.924;2022-09-02T05:14:24;96846.22;;;14.26;75.74
10135;BME280;5107;48.850;8.924;2022-09-02T05:16:53;96845.34;;;14.40;72.66
10135;BME280;5107;48.850;8.924;2022-09-02T05:19:21;96846.75;;;14.85;71.00
10135;BME280;5107;48.850;8.924;2022-09-02T05:21:51;96852.16;;;14.70;70.37
10135;BME280;5107;48.850;8.924;2022-09-02T05:24:26;96848.53;;;14.78;70.88
10135;BME280;5107;48.850;8.924;2022-09-02T05:26:57;96856.09;;;15.09;69.70
10135;BME280;5107;48.850;8.924;2022-09-02T05:29:26;96847.25;;;15.64;67.54
10135;BME280;5107;48.850;8.924;2022-09-02T05:31:56;96851.69;;;16.24;63.77
10135;BME280;5107;48.850;8.924;2022-09-02T05:34:25;96853.41;;;16.85;64.29
10135;BME280;5107;48.850;8.924;2022-09-02T05:36:55;96852.47;;;17.50;63.81
10135;BME280;5107;48.850;8.924;2022-09-02T05:39:25;96852.88;;;18.05;61.31
10135;BME280;5107;48.850;8.924;2022-09-02T05:41:52;96853.94;;;18.35;58.17
10135;BME280;5107;48.850;8.924;2022-09-02T05:44:20;96852.16;;;18.61;56.88
10135;BME280;5107;48.850;8.924;2022-09-02T05:46:49;96845.63;;;18.50;55.77
10135;BME280;5107;48.850;8.924;2022-09-02T05:49:17;96851.88;;;18.69;55.63
10135;BME280;5107;48.850;8.924;2022-09-02T05:51:57;96852.47;;;18.39;56.05
10135;BME280;5107;48.850;8.924;2022-09-02T05:54:40;96848.50;;;18.24;56.73
10135;BME280;5107;48.850;8.924;2022-09-02T05:57:13;96857.19;;;18.37;56.37
10135;BME280;5107;48.850;8.924;2022-09-02T05:59:52;96852.16;;;18.61;56.19
10135;BME280;5107;48.850;8.924;2022-09-02T06:02:24;96856.84;;;18.90;55.62
10135;BME280;5107;48.850;8.924;2022-09-02T06:04:53;96857.13;;;19.00;56.91
10135;BME280;5107;48.850;8.924;2022-09-02T06:07:22;96850.09;;;19.30;54.20
10135;BME280;5107;48.850;8.924;2022-09-02T06:09:52;96854.28;;;19.81;53.12
10135;BME280;5107;48.850;8.924;2022-09-02T06:12:23;96853.38;;;19.69;51.52
10135;BME280;5107;48.850;8.924;2022-09-02T06:14:51;96854.09;;;19.94;53.15
10135;BME280;5107;48.850;8.924;2022-09-02T06:17:20;96854.81;;;20.01;53.14
10135;BME280;5107;48.850;8.924;2022-09-02T06:19:51;96849.81;;;20.41;51.03
10135;BME280;5107;48.850;8.924;2022-09-02T06:22:22;96849.59;;;20.55;51.42
10135;BME280;5107;48.850;8.924;2022-09-02T06:24:51;96852.03;;;20.56;51.45
10135;BME280;5107;48.850;8.924;2022-09-02T06:27:23;96838.22;;;20.71;50.62
10135;BME280;5107;48.850;8.924;2022-09-02T06:29:52;96847.91;;;20.42;50.33
10135;BME280;5107;48.850;8.924;2022-09-02T06:32:22;96843.13;;;20.32;51.36
10135;BME280;5107;48.850;8.924;2022-09-02T06:34:57;96843.25;;;20.07;51.29
10135;BME280;5107;48.850;8.924;2022-09-02T06:37:26;96851.41;;;20.13;52.38
10135;BME280;5107;48.850;8.924;2022-09-02T06:39:54;96852.31;;;20.06;54.23
10135;BME280;5107;48.850;8.924;2022-09-02T06:42:23;96846.78;;;20.20;51.40
10135;BME280;5107;48.850;8.924;2022-09-02T06:45:04;96844.84;;;19.79;53.55
10135;BME280;5107;48.850;8.924;2022-09-02T06:47:32;96847.56;;;19.36;53.97
10135;BME280;5107;48.850;8.924;2022-09-02T06:50:02;96854.72;;;19.60;54.55
10135;BME280;5107;48.850;8.924;2022-09-02T06:52:31;96853.91;;;19.78;54.49
10135;BME280;5107;48.850;8.924;2022-09-02T06:54:59;96848.63;;;19.71;52.83
10135;BME280;5107;48.850;8.924;2022-09-02T06:57:27;96845.38;;;19.69;53.07
10135;BME280;5107;48.850;8.924;2022-09-02T06:59:56;96848.94;;;19.63;53.24
10135;BME280;5107;48.850;8.924;2022-09-02T07:02:23;96842.66;;;19.57;53.22
10135;BME280;5107;48.850;8.924;2022-09-02T07:04:51;96846.84;;;19.47;54.05
10135;BME280;5107;48.850;8.924;2022-09-02T07:07:42;96848.34;;;19.18;54.49
10135;BME280;5107;48.850;8.924;2022-09-02T07:10:14;96841.63;;;19.15;55.37
10135;BME280;5107;48.850;8.924;2022-09-02T07:12:50;96838.56;;;19.12;55.01
10135;BME280;5107;48.850;8.924;2022-09-02T07:15:17;96837.63;;;19.06;54.56
10135;BME280;5107;48.850;8.924;2022-09-02T07:17:45;96837.50;;;18.94;55.76
10135;BME280;5107;48.850;8.924;2022-09-02T07:20:25;96841.47;;;19.10;55.19
10135;BME280;5107;48.850;8.924;2022-09-02T07:22:58;96831.75;;;18.98;55.49
10135;BME280;5107;48.850;8.924;2022-09-02T07:25:29;96834.19;;;19.17;56.27
10135;BME280;5107;48.850;8.924;2022-09-02T07:27:57;96829.03;;;19.22;54.63
10135;BME280;5107;48.850;8.924;2022-09-02T07:30:28;96832.72;;;19.21;54.94
10135;BME280;5107;48.850;8.924;2022-09-02T07:33:03;96834.91;;;19.31;55.42
10135;BME280;5107;48.850;8.924;2022-09-02T07:35:31;96830.84;;;19.65;54.41
10135;BME280;5107;48.850;8.924;2022-09-02T07:38:00;96828.03;;;19.60;54.13
10135;BME280;5107;48.850;8.924;2022-09-02T07:40:29;96827.63;;;19.20;55.01
10135;BME280;5107;48.850;8.924;2022-09-02T07:42:56;96835.41;;;19.40;55.23
10135;BME280;5107;48.850;8.924;2022-09-02T07:45:24;96825.94;;;19.62;55.14
10135;BME280;5107;48.850;8.924;2022-09-02T07:47:52;96834.50;;;19.27;54.96
10135;BME280;5107;48.850;8.924;2022-09-02T07:50:20;96836.09;;;19.72;55.44
10135;BME280;5107;48.850;8.924;2022-09-02T07:52:52;96834.53;;;19.82;54.98
10135;BME280;5107;48.850;8.924;2022-09-02T07:55:23;96836.66;;;19.92;54.13
10135;BME280;5107;48.850;8.924;2022-09-02T07:57:52;96833.88;;;19.68;54.78
10135;BME280;5107;48.850;8.924;2022-09-02T08:00:20;96839.50;;;19.79;54.70
10135;BME280;5107;48.850;8.924;2022-09-02T08:02:54;96833.00;;;20.04;53.17
10135;BME280;5107;48.850;8.924;2022-09-02T08:05:27;96822.00;;;20.13;51.81
10135;BME280;5107;48.850;8.924;2022-09-02T08:07:55;96829.91;;;20.19;53.10
10135;BME280;5107;48.850;8.924;2022-09-02T08:10:23;96833.88;;;20.17;51.57
10135;BME280;5107;48.850;8.924;2022-09-02T08:12:55;96832.09;;;20.11;52.74
10135;BME280;5107;48.850;8.924;2022-09-02T08:15:23;96834.69;;;20.47;53.40
10135;BME280;5107;48.850;8.924;2022-09-02T08:17:53;96834.16;;;20.80;50.88
10135;BME280;5107;48.850;8.924;2022-09-02T08:20:21;96835.03;;;20.51;49.81
10135;BME280;5107;48.850;8.924;2022-09-02T08:22:48;96837.88;;;20.79;51.62
10135;BME280;5107;48.850;8.924;2022-09-02T08:25:15;96831.13;;;20.76;50.22
10135;BME280;5107;48.850;8.924;2022-09-02T08:27:44;96839.75;;;20.78;50.27
10135;BME280;5107;48.850;8.924;2022-09-02T08:30:12;96835.63;;;20.41;51.17
10135;BME280;5107;48.850;8.924;2022-09-02T08:32:40;96842.25;;;20.50;51.04
10135;BME280;5107;48.850;8.924;2022-09-02T08:35:09;96832.03;;;20.47;50.48
10135;BME280;5107;48.850;8.924;2022-09-02T08:37:37;96838.44;;;20.69;50.69
10135;BME280;5107;48.850;8.924;2022-09-02T08:40:10;96833.00;;;20.88;50.72
10135;BME280;5107;48.850;8.924;2022-09-02T08:42:45;96834.91;;;20.45;50.51
10135;BME280;5107;48.850;8.924;2022-09-02T08:45:19;96829.28;;;20.77;49.27
10135;BME280;5107;48.850;8.924;2022-09-02T08:47:50;96825.34;;;21.14;48.61
10135;BME280;5107;48.850;8.924;2022-09-02T08:50:23;96821.84;;;21.14;48.60
10135;BME280;5107;48.850;8.924;2022-09-02T08:53:00;96818.72;;;20.82;49.82
10135;BME280;5107;48.850;8.924;2022-09-02T08:55:38;96821.97;;;20.96;48.74
10135;BME280;5107;48.850;8.924;2022-09-02T08:58:09;96823.59;;;21.08;49.11
10135;BME280;5107;48.850;8.924;2022-09-02T09:00:40;96814.03;;;20.66;48.22
10135;BME280;5107;48.850;8.924;2022-09-02T09:03:18;96808.22;;;21.04;48.48
10135;BME280;5107;48.850;8.924;2022-09-02T09:05:58;96814.16;;;20.82;48.19
10135;BME280;5107;48.850;8.924;2022-09-02T09:08:35;96811.34;;;20.77;48.81
10135;BME280;5107;48.850;8.924;2022-09-02T09:11:15;96801.97;;;20.98;47.90
10135;BME280;5107;48.850;8.924;2022-09-02T09:14:06;96807.63;;;21.02;47.20
10135;BME280;5107;48.850;8.924;2022-09-02T09:16:41;96798.81;;;20.90;46.84
10135;BME280;5107;48.850;8.924;2022-09-02T09:19:13;96808.22;;;21.27;46.89
10135;BME280;5107;48.850;8.924;2022-09-02T09:21:42;96806.97;;;21.41;47.72
10135;BME280;5107;48.850;8.924;2022-09-02T09:24:29;96803.31;;;21.99;46.16
10135;BME280;5107;48.850;8.924;2022-09-02T09:26:58;96794.91;;;21.55;45.41
10135;BME280;5107;48.850;8.924;2022-09-02T09:29:31;96806.50;;;20.98;45.98
10135;BME280;5107;48.850;8.924;2022-09-02T09:31:59;96791.03;;;21.00;47.50
10135;BME280;5107;48.850;8.924;2022-09-02T09:34:54;96790.31;;;21.16;46.96
10135;BME280;5107;48.850;8.924;2022-09-02T09:37:38;96784.72;;;21.29;45.76
10135;BME280;5107;48.850;8.924;2022-09-02T09:40:30;96791.78;;;21.58;43.99
10135;BME280;5107;48.850;8.924;2022-09-02T09:43:12;96791.41;;;21.95;43.08
10135;BME280;5107;48.850;8.924;2022-09-02T09:45:42;96794.53;;;22.04;42.73
10135;BME280;5107;48.850;8.924;2022-09-02T09:48:22;96789.28;;;21.69;43.43
10135;BME280;5107;48.850;8.924;2022-09-02T09:51:12;96788.28;;;21.86;45.46
10135;BME280;5107;48.850;8.924;2022-09-02T09:53:40;96777.88;;;22.47;43.28
10135;BME280;5107;48.850;8.924;2022-09-02T09:56:32;96777.28;;;22.45;40.39
10135;BME280;5107;48.850;8.924;2022-09-02T09:58:59;96776.03;;;22.19;40.79
10135;BME280;5107;48.850;8.924;2022-09-02T10:01:31;96779.44;;;22.59;40.83
10135;BME280;5107;48.850;8.924;2022-09-02T10:04:03;96781.69;;;22.17;39.35
10135;BME280;5107;48.850;8.924;2022-09-02T10:06:38;96783.75;;;21.99;40.82
10135;BME280;5107;48.850;8.924;2022-09-02T10:09:29;96777.94;;;21.78;40.84
10135;BME280;5107;48.850;8.924;2022-09-02T10:12:00;96768.31;;;21.94;40.48
10135;BME280;5107;48.850;8.924;2022-09-02T10:14:34;96774.38;;;22.29;40.92
10135;BME280;5107;48.850;8.924;2022-09-02T10:17:23;96776.13;;;22.07;39.06
10135;BME280;5107;48.850;8.924;2022-09-02T10:19:58;96770.94;;;22.17;39.46
10135;BME280;5107;48.850;8.924;2022-09-02T10:22:53;96771.50;;;22.19;39.65
10135;BME280;5107;48.850;8.924;2022-09-02T10:25:32;96763.63;;;22.29;39.57
10135;BME280;5107;48.850;8.924;2022-09-02T10:28:08;96764.28;;;22.37;37.85
10135;BME280;5107;48.850;8.924;2022-09-02T10:30:44;96765.84;;;22.49;38.37
10135;BME280;5107;48.850;8.924;2022-09-02T10:33:32;96756.16;;;22.31;38.67
10135;BME280;5107;48.850;8.924;2022-09-02T10:36:08;96754.47;;;22.25;38.94
10135;BME280;5107;48.850;8.924;2022-09-02T10:38:41;96751.22;;;22.57;38.36
10135;BME280;5107;48.850;8.924;2022-09-02T10:41:23;96723.75;;;22.16;38.95
10135;BME280;5107;48.850;8.924;2022-09-02T10:46:55;96736.66;;;22.36;38.58
10135;BME280;5107;48.850;8.924;2022-09-02T10:49:51;96735.19;;;22.28;39.04
10135;BME280;5107;48.850;8.924;2022-09-02T10:52:42;96725.78;;;22.59;38.76
10135;BME280;5107;48.850;8.924;2022-09-02T10:55:17;96729.19;;;23.10;39.79
10135;BME280;5107;48.850;8.924;2022-09-02T10:57:51;96723.81;;;22.88;37.44
10135;BME280;5107;48.850;8.924;2022-09-02T11:00:21;96720.44;;;22.98;37.69
10135;BME280;5107;48.850;8.924;2022-09-02T11:02:54;96715.41;;;23.23;37.34
10135;BME280;5107;48.850;8.924;2022-09-02T11:05:37;96706.63;;;23.50;36.55
10135;BME280;5107;48.850;8.924;2022-09-02T11:08:11;96709.38;;;22.94;36.80
10135;BME280;5107;48.850;8.924;2022-09-02T11:10:53;96710.94;;;22.90;37.03
10135;BME280;5107;48.850;8.924;2022-09-02T11:13:29;96704.28;;;23.15;36.71
10135;BME280;5107;48.850;8.924;2022-09-02T11:16:05;96711.59;;;22.97;37.15
10135;BME280;5107;48.850;8.924;2022-09-02T11:18:43;96712.78;;;23.06;36.16
10135;BME280;5107;48.850;8.924;2022-09-02T11:21:33;96704.28;;;23.15;35.66
10135;BME280;5107;48.850;8.924;2022-09-02T11:24:05;96699.28;;;23.23;36.11
10135;BME280;5107;48.850;8.924;2022-09-02T11:26:39;96699.78;;;23.42;35.76
10135;BME280;5107;48.850;8.924;2022-09-02T11:29:13;96696.28;;;23.63;35.43
10135;BME280;5107;48.850;8.924;2022-09-02T11:31:45;96695.47;;;23.63;34.20
10135;BME280;5107;48.850;8.924;2022-09-02T11:34:24;96698.22;;;23.46;35.31
10135;BME280;5107;48.850;8.924;2022-09-02T11:37:01;96702.56;;;23.25;35.32
10135;BME280;5107;48.850;8.924;2022-09-02T11:39:33;96688.69;;;23.33;35.04
10135;BME280;5107;48.850;8.924;2022-09-02T11:42:21;96685.66;;;23.30;35.19
10135;BME280;5107;48.850;8.924;2022-09-02T11:45:18;96691.31;;;23.06;36.21
10135;BME280;5107;48.850;8.924;2022-09-02T11:48:11;96686.59;;;23.40;35.90
10135;BME280;5107;48.850;8.924;2022-09-02T11:51:25;96684.63;;;23.79;36.31
10135;BME280;5107;48.850;8.924;2022-09-02T11:54:00;96687.56;;;24.05;36.09
10135;BME280;5107;48.850;8.924;2022-09-02T11:56:35;96692.53;;;23.64;35.68
10135;BME280;5107;48.850;8.924;2022-09-02T11:59:05;96685.59;;;23.68;36.02
10135;BME280;5107;48.850;8.924;2022-09-02T12:01:35;96686.03;;;24.14;36.57
10135;BME280;5107;48.850;8.924;2022-09-02T12:04:06;96687.06;;;23.81;36.02
10135;BME280;5107;48.850;8.924;2022-09-02T12:07:24;96684.50;;;24.23;34.88
10135;BME280;5107;48.850;8.924;2022-09-02T12:09:54;96676.59;;;24.43;34.56
10135;BME280;5107;48.850;8.924;2022-09-02T12:13:03;96681.44;;;24.14;34.01
10135;BME280;5107;48.850;8.924;2022-09-02T12:15:30;96690.47;;;24.25;34.42
10135;BME280;5107;48.850;8.924;2022-09-02T12:18:25;96684.97;;;23.61;35.09
10135;BME280;5107;48.850;8.924;2022-09-02T12:21:08;96688.59;;;23.99;34.72
10135;BME280;5107;48.850;8.924;2022-09-02T12:24:18;96680.75;;;24.24;34.39
10135;BME280;5107;48.850;8.924;2022-09-02T12:27:27;96683.06;;;24.42;34.46
10135;BME280;5107;48.850;8.924;2022-09-02T12:29:56;96680.66;;;24.46;34.07
10135;BME280;5107;48.850;8.924;2022-09-02T12:33:02;96676.63;;;24.48;33.70
10135;BME280;5107;48.850;8.924;2022-09-02T12:35:53;96675.72;;;24.06;34.44
10135;BME280;5107;48.850;8.924;2022-09-02T12:38:40;96667.66;;;24.38;35.90
10135;BME280;5107;48.850;8.924;2022-09-02T12:41:27;96664.41;;;24.78;34.62
10135;BME280;5107;48.850;8.924;2022-09-02T12:44:19;96667.91;;;24.73;33.27
10135;BME280;5107;48.850;8.924;2022-09-02T12:47:03;96666.28;;;24.72;34.06
10135;BME280;5107;48.850;8.924;2022-09-02T12:49:46;96668.91;;;24.62;33.06
10135;BME280;5107;48.850;8.924;2022-09-02T12:52:43;96658.00;;;24.84;33.37
10135;BME280;5107;48.850;8.924;2022-09-02T12:55:19;96646.78;;;24.92;34.07
10135;BME280;5107;48.850;8.924;2022-09-02T12:57:50;96645.72;;;24.98;34.09
10135;BME280;5107;48.850;8.924;2022-09-02T13:00:32;96641.41;;;24.97;33.97
10135;BME280;5107;48.850;8.924;2022-09-02T13:03:15;96639.75;;;24.91;33.71
10135;BME280;5107;48.850;8.924;2022-09-02T13:05:57;96636.09;;;24.65;33.52
10135;BME280;5107;48.850;8.924;2022-09-02T13:09:25;96634.22;;;24.66;33.86
10135;BME280;5107;48.850;8.924;2022-09-02T13:12:49;96632.25;;;24.51;34.03
10135;BME280;5107;48.850;8.924;2022-09-02T13:22:03;96632.25;;;24.51;34.69
10135;BME280;5107;48.850;8.924;2022-09-02T13:25:12;96618.13;;;24.76;34.36
10135;BME280;5107;48.850;8.924;2022-09-02T13:28:13;96614.06;;;24.68;33.72
10135;BME280;5107;48.850;8.924;2022-09-02T13:31:14;96607.50;;;24.17;34.90
10135;BME280;5107;48.850;8.924;2022-09-02T13:33:45;96599.72;;;24.63;34.09
10135;BME280;5107;48.850;8.924;2022-09-02T13:36:23;96596.66;;;24.39;33.89
10135;BME280;5107;48.850;8.924;2022-09-02T13:38:52;96593.84;;;24.71;35.06
10135;BME280;5107;48.850;8.924;2022-09-02T13:41:30;96584.44;;;24.68;34.02
10135;BME280;5107;48.850;8.924;2022-09-02T13:44:08;96584.25;;;24.38;34.32
10135;BME280;5107;48.850;8.924;2022-09-02T13:46:46;96581.31;;;24.39;34.89
10135;BME280;5107;48.850;8.924;2022-09-02T13:49:22;96587.25;;;24.41;34.16
10135;BME280;5107;48.850;8.924;2022-09-02T13:51:54;96579.81;;;24.64;34.89
10135;BME280;5107;48.850;8.924;2022-09-02T13:54:31;96578.56;;;24.86;33.78
10135;BME280;5107;48.850;8.924;2022-09-02T13:57:03;96573.38;;;24.60;34.55
10135;BME280;5107;48.850;8.924;2022-09-02T13:59:36;96580.19;;;24.87;34.15